createdAt,value
2018-06-11T00:01:03.387Z,100977.65
2018-06-11T00:02:07.874Z,100981.02
2018-06-11T00:03:12.081Z,100976.34
2018-06-11T00:04:16.477Z,100986.48
2018-06-11T00:05:20.720Z,100985.52
2018-06-11T00:06:24.958Z,100990.57
2018-06-11T00:07:29.340Z,100990.74
2018-06-11T00:08:33.825Z,100991.25
2018-06-11T00:09:38.127Z,100990.94
2018-06-11T00:10:42.473Z,100984.20
2018-06-11T00:11:46.719Z,100988.41
2018-06-11T00:12:50.980Z,100995.67
2018-06-11T00:13:55.463Z,100990.81
2018-06-11T00:14:59.983Z,100996.71
2018-06-11T00:16:04.245Z,100989.80
2018-06-11T00:17:08.491Z,100992.70
2018-06-11T00:18:12.936Z,100990.17
2018-06-11T00:19:17.164Z,100989.73
2018-06-11T00:20:22.208Z,100989.39
2018-06-11T00:21:26.539Z,100987.20
2018-06-11T00:22:30.803Z,100989.26
2018-06-11T00:23:35.128Z,100993.61
2018-06-11T00:24:39.494Z,100990.61
2018-06-11T00:25:43.852Z,100991.95
2018-06-11T00:26:48.108Z,100986.22
2018-06-11T00:27:52.566Z,100985.72
2018-06-11T00:28:56.812Z,100988.41
2018-06-11T00:30:01.012Z,100990.61
2018-06-11T00:31:05.456Z,100989.56
2018-06-11T00:32:09.939Z,100989.73
2018-06-11T00:33:14.263Z,100988.52
2018-06-11T00:34:18.577Z,100983.97
2018-06-11T00:35:22.856Z,100985.62
2018-06-11T00:36:27.127Z,100989.30
2018-06-11T00:37:31.351Z,100982.55
2018-06-11T00:38:35.596Z,100986.59
2018-06-11T00:39:39.815Z,100983.39
2018-06-11T00:40:44.091Z,100986.09
2018-06-11T00:41:48.315Z,100990.64
2018-06-11T00:42:52.578Z,100990.84
2018-06-11T00:43:57.086Z,100991.02
2018-06-11T00:45:01.343Z,100993.41
2018-06-11T00:46:05.595Z,100977.73
2018-06-11T00:47:09.874Z,100979.92
2018-06-11T00:48:14.199Z,100975.33
2018-06-11T00:49:18.429Z,100978.57
2018-06-11T00:50:22.620Z,100972.33
2018-06-11T00:51:26.868Z,100972.84
2018-06-11T00:52:31.163Z,100970.64
2018-06-11T00:53:35.407Z,100970.14
2018-06-11T00:54:39.820Z,100968.79
2018-06-11T00:55:55.193Z,100964.41
2018-06-11T00:56:59.504Z,100964.78
2018-06-11T00:58:04.019Z,100966.33
2018-06-11T00:59:08.249Z,100970.88
2018-06-11T01:00:12.512Z,100970.38
2018-06-11T01:01:16.741Z,100973.88
2018-06-11T01:02:21.251Z,100973.38
2018-06-11T01:03:25.668Z,100979.28
2018-06-11T01:04:29.944Z,100972.23
2018-06-11T01:05:34.240Z,100971.39
2018-06-11T01:06:38.483Z,100972.23
2018-06-11T01:07:42.960Z,100968.19
2018-06-11T01:08:47.232Z,100969.53
2018-06-11T01:09:51.468Z,100961.11
2018-06-11T01:10:55.799Z,100951.66
2018-06-11T01:12:00.415Z,100956.89
2018-06-11T01:13:04.741Z,100949.98
2018-06-11T01:14:09.118Z,100952.20
2018-06-11T01:15:13.379Z,100942.63
2018-06-11T01:16:17.904Z,100943.34
2018-06-11T01:17:22.250Z,100944.35
2018-06-11T01:18:26.595Z,100943.00
2018-06-11T01:19:30.830Z,100943.71
2018-06-11T01:20:35.342Z,100946.77
2018-06-11T01:21:39.598Z,100951.83
2018-06-11T01:22:43.795Z,100955.54
2018-06-11T01:23:48.006Z,100956.58
2018-06-11T01:24:52.222Z,100950.72
2018-06-11T01:25:56.464Z,100951.89
2018-06-11T01:27:00.659Z,100952.94
2018-06-11T01:28:04.900Z,100955.63
2018-06-11T01:29:09.347Z,100953.78
2018-06-11T01:30:13.587Z,100951.89
2018-06-11T01:31:18.375Z,100957.62
2018-06-11T01:32:22.629Z,100952.56
2018-06-11T01:33:26.991Z,100942.13
2018-06-11T01:34:31.180Z,100946.98
2018-06-11T01:35:35.418Z,100947.81
2018-06-11T01:36:39.843Z,100951.36
2018-06-11T01:37:44.130Z,100956.58
2018-06-11T01:38:48.364Z,100954.70
2018-06-11T01:39:52.765Z,100954.90
2018-06-11T01:40:57.197Z,100955.27
2018-06-11T01:42:01.633Z,100953.92
2018-06-11T01:43:05.868Z,100949.06
2018-06-11T01:44:10.063Z,100949.56
2018-06-11T01:45:14.307Z,100954.66
2018-06-11T01:46:18.519Z,100953.98
2018-06-11T01:47:22.884Z,100952.33
2018-06-11T01:48:27.135Z,100949.29
2018-06-11T01:49:31.556Z,100941.91
2018-06-11T01:50:35.848Z,100949.29
2018-06-11T01:51:40.128Z,100951.65
2018-06-11T01:52:44.387Z,100952.35
2018-06-11T01:53:48.685Z,100946.09
2018-06-11T01:54:53.148Z,100942.21
2018-06-11T01:55:57.333Z,100939.21
2018-06-11T01:57:01.626Z,100942.41
2018-06-11T01:58:05.882Z,100937.19
2018-06-11T01:59:10.280Z,100938.73
2018-06-11T02:00:14.556Z,100939.23
2018-06-11T02:01:18.768Z,100941.59
2018-06-11T02:02:23.334Z,100936.91
2018-06-11T02:03:27.621Z,100929.83
2018-06-11T02:04:31.895Z,100932.39
2018-06-11T02:05:36.160Z,100928.52
2018-06-11T02:06:40.386Z,100923.48
2018-06-11T02:07:44.633Z,100927.05
2018-06-11T02:08:48.827Z,100922.23
2018-06-11T02:09:53.104Z,100920.41
2018-06-11T02:10:57.404Z,100921.75
2018-06-11T02:12:01.743Z,100915.72
2018-06-11T02:13:06.310Z,100916.89
2018-06-11T02:14:10.525Z,100918.94
2018-06-11T02:15:14.764Z,100921.30
2018-06-11T02:16:18.972Z,100918.30
2018-06-11T02:17:23.226Z,100915.77
2018-06-11T02:18:27.525Z,100913.27
2018-06-11T02:19:31.799Z,100913.60
2018-06-11T02:20:35.964Z,100911.27
2018-06-11T02:21:40.167Z,100917.02
2018-06-11T02:22:44.399Z,100915.19
2018-06-11T02:23:48.819Z,100916.39
2018-06-11T02:24:53.111Z,100920.80
2018-06-11T02:25:57.402Z,100920.14
2018-06-11T02:27:01.721Z,100915.43
2018-06-11T02:28:05.983Z,100919.16
2018-06-11T02:29:10.163Z,100921.02
2018-06-11T02:30:14.399Z,100918.48
2018-06-11T02:31:18.612Z,100927.06
2018-06-11T02:32:22.799Z,100920.87
2018-06-11T02:33:27.078Z,100924.91
2018-06-11T02:34:31.247Z,100927.26
2018-06-11T02:35:35.699Z,100920.89
2018-06-11T02:36:39.914Z,100919.20
2018-06-11T02:37:44.123Z,100919.20
2018-06-11T02:38:48.581Z,100923.59
2018-06-11T02:39:52.789Z,100920.25
2018-06-11T02:40:57.036Z,100915.03
2018-06-11T02:42:01.247Z,100917.08
2018-06-11T02:43:05.875Z,100910.14
2018-06-11T02:44:10.080Z,100911.17
2018-06-11T02:45:14.321Z,100913.19
2018-06-11T02:46:18.547Z,100913.55
2018-06-11T02:47:22.952Z,100913.91
2018-06-11T02:48:27.244Z,100910.06
2018-06-11T02:49:31.454Z,100909.88
2018-06-11T02:50:35.693Z,100913.92
2018-06-11T02:51:40.006Z,100911.58
2018-06-11T02:52:44.255Z,100918.00
2018-06-11T02:53:48.523Z,100920.69
2018-06-11T02:54:52.794Z,100917.66
2018-06-11T02:55:57.162Z,100918.66
2018-06-11T02:57:01.414Z,100916.17
2018-06-11T02:58:05.743Z,100916.33
2018-06-11T02:59:09.976Z,100915.17
2018-06-11T03:00:14.173Z,100918.37
2018-06-11T03:01:18.589Z,100912.30
2018-06-11T03:02:23.141Z,100918.72
2018-06-11T03:03:27.484Z,100919.22
2018-06-11T03:04:31.719Z,100920.73
2018-06-11T03:05:36.261Z,100922.12
2018-06-11T03:06:40.521Z,100916.75
2018-06-11T03:07:45.459Z,100928.52
2018-06-11T03:08:49.709Z,100924.67
2018-06-11T03:09:54.045Z,100924.13
2018-06-11T03:10:58.288Z,100930.05
2018-06-11T03:12:02.492Z,100922.33
2018-06-11T03:13:06.875Z,100917.45
2018-06-11T03:14:11.088Z,100918.95
2018-06-11T03:15:15.537Z,100922.48
2018-06-11T03:16:20.035Z,100918.80
2018-06-11T03:17:24.315Z,100919.45
2018-06-11T03:18:28.578Z,100915.42
2018-06-11T03:19:32.775Z,100906.70
2018-06-11T03:20:37.013Z,100906.70
2018-06-11T03:21:41.239Z,100901.17
2018-06-11T03:22:45.455Z,100904.86
2018-06-11T03:23:49.715Z,100906.06
2018-06-11T03:24:53.976Z,100904.03
2018-06-11T03:25:58.182Z,100902.03
2018-06-11T03:27:02.397Z,100904.72
2018-06-11T03:28:06.643Z,100903.88
2018-06-11T03:29:10.948Z,100907.06
2018-06-11T03:30:15.207Z,100909.45
2018-06-11T03:31:19.598Z,100907.77
2018-06-11T03:32:23.868Z,100909.27
2018-06-11T03:33:28.140Z,100906.27
2018-06-11T03:34:32.446Z,100915.68
2018-06-11T03:35:36.690Z,100905.58
2018-06-11T03:36:40.907Z,100902.08
2018-06-11T03:37:45.114Z,100903.42
2018-06-11T03:38:49.351Z,100901.05
2018-06-11T03:39:53.783Z,100904.23
2018-06-11T03:40:58.236Z,100906.27
2018-06-11T03:42:02.590Z,100904.42
2018-06-11T03:43:06.884Z,100899.39
2018-06-11T03:44:11.296Z,100901.05
2018-06-11T03:45:15.637Z,100899.55
2018-06-11T03:46:19.875Z,100902.88
2018-06-11T03:47:24.171Z,100906.42
2018-06-11T03:48:28.387Z,100910.45
2018-06-11T03:49:32.840Z,100904.92
2018-06-11T03:50:37.141Z,100906.77
2018-06-11T03:51:41.519Z,100910.80
2018-06-11T03:52:45.769Z,100905.92
2018-06-11T03:53:50.507Z,100907.27
2018-06-11T03:54:54.909Z,100911.14
2018-06-11T03:55:59.118Z,100912.98
2018-06-11T03:57:03.419Z,100915.34
2018-06-11T03:58:07.659Z,100915.34
2018-06-11T03:59:11.991Z,100918.52
2018-06-11T04:00:16.208Z,100917.83
2018-06-11T04:01:20.458Z,100916.33
2018-06-11T04:02:25.258Z,100916.67
2018-06-11T04:03:29.474Z,100915.98
2018-06-11T04:04:33.688Z,100915.14
2018-06-11T04:05:37.969Z,100922.55
2018-06-11T04:06:42.379Z,100918.68
2018-06-11T04:07:46.638Z,100920.55
2018-06-11T04:08:50.896Z,100924.25
2018-06-11T04:09:55.187Z,100920.91
2018-06-11T04:10:59.532Z,100921.91
2018-06-11T04:12:03.678Z,100920.22
2018-06-11T04:13:07.944Z,100909.12
2018-06-11T04:14:12.200Z,100916.69
2018-06-11T04:15:16.426Z,100917.19
2018-06-11T04:16:20.660Z,100911.81
2018-06-11T04:17:24.968Z,100915.69
2018-06-11T04:18:29.172Z,100920.75
2018-06-11T04:19:33.399Z,100918.87
2018-06-11T04:20:37.610Z,100917.22
2018-06-11T04:21:41.870Z,100919.72
2018-06-11T04:22:46.109Z,100918.53
2018-06-11T04:23:50.361Z,100920.56
2018-06-11T04:24:54.652Z,100921.22
2018-06-11T04:25:58.937Z,100922.05
2018-06-11T04:27:03.364Z,100916.83
2018-06-11T04:28:07.643Z,100918.02
2018-06-11T04:29:11.903Z,100916.17
2018-06-11T04:30:16.087Z,100914.83
2018-06-11T04:31:20.328Z,100919.02
2018-06-11T04:32:24.527Z,100920.16
2018-06-11T04:33:28.785Z,100924.20
2018-06-11T04:34:33.004Z,100916.47
2018-06-11T04:35:37.226Z,100908.75
2018-06-11T04:36:41.394Z,100910.44
2018-06-11T04:37:45.621Z,100907.41
2018-06-11T04:38:49.806Z,100907.06
2018-06-11T04:39:54.062Z,100906.22
2018-06-11T04:40:58.242Z,100911.94
2018-06-11T04:42:02.483Z,100905.38
2018-06-11T04:43:06.716Z,100913.28
2018-06-11T04:44:10.936Z,100911.09
2018-06-11T04:45:15.130Z,100909.75
2018-06-11T04:46:19.619Z,100913.62
2018-06-11T04:47:23.899Z,100916.62
2018-06-11T04:48:28.151Z,100912.44
2018-06-11T04:49:32.427Z,100910.05
2018-06-11T04:50:36.676Z,100910.39
2018-06-11T04:51:40.960Z,100920.44
2018-06-11T04:52:45.291Z,100917.40
2018-06-11T04:53:49.473Z,100918.73
2018-06-11T04:54:53.840Z,100921.07
2018-06-11T04:55:58.072Z,100925.76
2018-06-11T04:57:02.321Z,100925.25
2018-06-11T04:58:06.527Z,100923.75
2018-06-11T04:59:10.825Z,100921.55
2018-06-11T05:00:15.293Z,100924.39
2018-06-11T05:01:19.579Z,100921.84
2018-06-11T05:02:23.994Z,100917.30
2018-06-11T05:03:28.169Z,100920.00
2018-06-11T05:04:32.555Z,100922.33
2018-06-11T05:05:36.882Z,100928.39
2018-06-11T05:06:41.131Z,100926.50
2018-06-11T05:07:45.702Z,100925.64
2018-06-11T05:08:49.901Z,100932.89
2018-06-11T05:09:54.140Z,100929.00
2018-06-11T05:10:58.420Z,100940.11
2018-06-11T05:12:02.639Z,100946.84
2018-06-11T05:13:06.864Z,100949.19
2018-06-11T05:14:11.190Z,100941.47
2018-06-11T05:15:15.460Z,100943.66
2018-06-11T05:16:19.746Z,100941.94
2018-06-11T05:17:24.040Z,100941.81
2018-06-11T05:18:28.669Z,100939.63
2018-06-11T05:19:32.979Z,100938.11
2018-06-11T05:20:37.180Z,100933.72
2018-06-11T05:21:41.459Z,100935.37
2018-06-11T05:22:45.888Z,100934.03
2018-06-11T05:23:50.182Z,100939.39
2018-06-11T05:24:54.393Z,100933.30
2018-06-11T05:25:58.682Z,100935.46
2018-06-11T05:27:02.917Z,100945.03
2018-06-11T05:28:07.099Z,100937.94
2018-06-11T05:29:11.347Z,100944.00
2018-06-11T05:30:15.595Z,100948.05
2018-06-11T05:31:19.906Z,100942.97
2018-06-11T05:32:24.231Z,100948.69
2018-06-11T05:33:28.509Z,100947.00
2018-06-11T05:34:32.872Z,100952.39
2018-06-11T05:35:37.277Z,100953.23
2018-06-11T05:36:41.514Z,100950.73
2018-06-11T05:37:45.808Z,100957.47
2018-06-11T05:38:50.242Z,100956.29
2018-06-11T05:39:54.565Z,100952.75
2018-06-11T05:40:58.878Z,100946.02
2018-06-11T05:42:03.179Z,100941.31
2018-06-11T05:43:07.471Z,100938.08
2018-06-11T05:44:11.710Z,100946.00
2018-06-11T05:45:16.065Z,100953.38
2018-06-11T05:46:20.479Z,100953.36
2018-06-11T05:47:24.747Z,100946.77
2018-06-11T05:48:28.978Z,100953.84
2018-06-11T05:49:33.286Z,100948.45
2018-06-11T05:50:37.575Z,100951.63
2018-06-11T05:51:41.778Z,100947.56
2018-06-11T05:52:46.099Z,100949.70
2018-06-11T05:53:50.385Z,100953.88
2018-06-11T05:54:54.690Z,100954.84
2018-06-11T05:55:59.023Z,100952.46
2018-06-11T05:57:03.220Z,100954.80
2018-06-11T05:58:07.555Z,100962.31
2018-06-11T05:59:11.816Z,100961.14
2018-06-11T06:00:16.126Z,100964.45
2018-06-11T06:01:20.367Z,100958.80
2018-06-11T06:02:24.913Z,100957.05
2018-06-11T06:03:29.109Z,100961.84
2018-06-11T06:04:33.418Z,100959.25
2018-06-11T06:05:37.753Z,100953.45
2018-06-11T06:06:41.970Z,100947.78
2018-06-11T06:07:46.192Z,100954.62
2018-06-11T06:08:50.379Z,100945.56
2018-06-11T06:09:54.572Z,100949.91
2018-06-11T06:10:58.854Z,100955.81
2018-06-11T06:12:03.184Z,100956.83
2018-06-11T06:13:07.574Z,100956.83
2018-06-11T06:14:11.859Z,100949.91
2018-06-11T06:15:16.228Z,100955.78
2018-06-11T06:16:20.490Z,100949.48
2018-06-11T06:17:24.720Z,100952.40
2018-06-11T06:18:30.346Z,100948.43
2018-06-11T06:19:34.608Z,100949.99
2018-06-11T06:20:38.835Z,100952.05
2018-06-11T06:21:43.114Z,100951.24
2018-06-11T06:22:47.312Z,100953.45
2018-06-11T06:23:51.529Z,100948.97
2018-06-11T06:24:55.759Z,100957.27
2018-06-11T06:26:00.058Z,100960.58
2018-06-11T06:27:04.398Z,100958.09
2018-06-11T06:28:08.596Z,100953.55
2018-06-11T06:29:12.866Z,100953.59
2018-06-11T06:30:17.080Z,100953.66
2018-06-11T06:31:21.292Z,100946.27
2018-06-11T06:32:25.498Z,100946.11
2018-06-11T06:33:29.704Z,100937.49
2018-06-11T06:34:33.945Z,100942.00
2018-06-11T06:35:38.114Z,100934.02
2018-06-11T06:36:42.351Z,100939.70
2018-06-11T06:37:46.965Z,100940.82
2018-06-11T06:38:51.289Z,100936.70
2018-06-11T06:39:55.671Z,100930.41
2018-06-11T06:40:59.874Z,100934.70
2018-06-11T06:42:04.123Z,100939.72
2018-06-11T06:43:08.325Z,100937.67
2018-06-11T06:44:12.522Z,100933.62
2018-06-11T06:45:16.712Z,100931.03
2018-06-11T06:46:21.133Z,100932.39
2018-06-11T06:47:25.505Z,100937.73
2018-06-11T06:48:29.711Z,100935.78
2018-06-11T06:49:33.907Z,100936.32
2018-06-11T06:50:38.148Z,100940.89
2018-06-11T06:51:42.346Z,100943.98
2018-06-11T06:52:46.594Z,100945.73
2018-06-11T06:53:50.842Z,100949.12
2018-06-11T06:54:55.228Z,100950.17
2018-06-11T06:55:59.450Z,100949.51
2018-06-11T06:57:04.031Z,100956.78
2018-06-11T06:58:08.271Z,100952.27
2018-06-11T06:59:12.461Z,100962.33
2018-06-11T07:00:16.726Z,100958.16
2018-06-11T07:01:20.896Z,100960.70
2018-06-11T07:02:25.105Z,100955.17
2018-06-11T07:03:29.551Z,100953.64
2018-06-11T07:04:33.914Z,100942.84
2018-06-11T07:05:38.135Z,100948.36
2018-06-11T07:06:42.411Z,100950.85
2018-06-11T07:07:46.736Z,100948.81
2018-06-11T07:08:51.030Z,100947.25
2018-06-11T07:09:55.237Z,100952.09
2018-06-11T07:10:59.426Z,100955.58
2018-06-11T07:12:03.838Z,100956.45
2018-06-11T07:13:08.020Z,100955.36
2018-06-11T07:14:12.252Z,100956.11
2018-06-11T07:15:16.478Z,100952.51
2018-06-11T07:16:20.719Z,100956.56
2018-06-11T07:17:24.874Z,100958.58
2018-06-11T07:18:29.026Z,100953.47
2018-06-11T07:19:33.256Z,100945.17
2018-06-11T07:20:37.494Z,100947.48
2018-06-11T07:21:41.727Z,100952.05
2018-06-11T07:22:45.898Z,100939.13
2018-06-11T07:23:50.078Z,100946.41
2018-06-11T07:24:54.297Z,100950.13
2018-06-11T07:25:58.526Z,100942.59
2018-06-11T07:27:02.825Z,100952.66
2018-06-11T07:28:07.130Z,100954.28
2018-06-11T07:29:11.316Z,100946.86
2018-06-11T07:30:15.550Z,100949.90
2018-06-11T07:31:19.801Z,100948.73
2018-06-11T07:32:24.327Z,100942.81
2018-06-11T07:33:28.604Z,100941.97
2018-06-11T07:34:32.810Z,100941.97
2018-06-11T07:35:36.987Z,100940.31
2018-06-11T07:36:41.164Z,100940.83
2018-06-11T07:37:45.315Z,100945.18
2018-06-11T07:38:49.501Z,100941.45
2018-06-11T07:39:53.757Z,100947.20
2018-06-11T07:40:58.042Z,100945.63
2018-06-11T07:42:02.209Z,100948.03
2018-06-11T07:43:06.460Z,100950.74
2018-06-11T07:44:10.659Z,100947.38
2018-06-11T07:45:14.929Z,100949.12
2018-06-11T07:46:19.121Z,100941.06
2018-06-11T07:47:23.335Z,100948.55
2018-06-11T07:48:27.563Z,100939.66
2018-06-11T07:49:31.788Z,100938.18
2018-06-11T07:50:36.074Z,100937.88
2018-06-11T07:51:40.350Z,100930.67
2018-06-11T07:52:44.503Z,100937.09
2018-06-11T07:53:48.669Z,100933.94
2018-06-11T07:54:52.896Z,100937.39
2018-06-11T07:55:57.063Z,100932.67
2018-06-11T07:57:01.308Z,100942.97
2018-06-11T07:58:05.488Z,100942.91
2018-06-11T07:59:09.981Z,100946.94
2018-06-11T08:00:14.156Z,100946.44
2018-06-11T08:01:18.395Z,100948.75
2018-06-11T08:02:22.889Z,100956.47
2018-06-11T08:03:27.234Z,100945.27
2018-06-11T08:04:31.504Z,100949.05
2018-06-11T08:05:35.735Z,100944.43
2018-06-11T08:06:39.974Z,100943.98
2018-06-11T08:07:44.202Z,100944.88
2018-06-11T08:08:48.470Z,100938.87
2018-06-11T08:09:53.059Z,100933.79
2018-06-11T08:10:57.949Z,100935.77
2018-06-11T08:12:02.131Z,100935.59
2018-06-11T08:13:06.443Z,100933.52
2018-06-11T08:14:10.844Z,100933.45
2018-06-11T08:15:15.103Z,100930.47
2018-06-11T08:16:19.615Z,100927.19
2018-06-11T08:17:23.810Z,100930.12
2018-06-11T08:18:28.198Z,100917.55
2018-06-11T08:19:32.409Z,100914.98
2018-06-11T08:20:36.608Z,100918.83
2018-06-11T08:21:40.807Z,100914.73
2018-06-11T08:23:47.981Z,100912.00
2018-06-11T08:24:52.194Z,100910.24
2018-06-11T08:25:56.670Z,100904.73
2018-06-11T08:27:00.901Z,100904.98
2018-06-11T08:28:05.276Z,100906.99
2018-06-11T08:29:09.503Z,100903.88
2018-06-11T08:30:13.758Z,100901.86
2018-06-11T08:31:18.027Z,100901.23
2018-06-11T08:32:22.747Z,100903.53
2018-06-11T08:33:26.967Z,100902.83
2018-06-11T08:34:31.319Z,100899.91
2018-06-11T08:35:35.797Z,100893.69
2018-06-11T08:36:39.993Z,100898.45
2018-06-11T08:37:44.203Z,100903.94
2018-06-11T08:38:48.408Z,100908.73
2018-06-11T08:39:52.631Z,100913.82
2018-06-11T08:40:56.899Z,100911.84
2018-06-11T08:42:01.134Z,100914.23
2018-06-11T08:43:05.417Z,100919.13
2018-06-11T08:44:09.642Z,100913.53
2018-06-11T08:45:13.916Z,100916.02
2018-06-11T08:46:18.185Z,100919.38
2018-06-11T08:47:22.422Z,100919.16
2018-06-11T08:48:26.658Z,100914.69
2018-06-11T08:49:30.966Z,100916.48
2018-06-11T08:50:35.326Z,100912.01
2018-06-11T08:51:39.683Z,100916.59
2018-06-11T08:52:43.856Z,100915.23
2018-06-11T08:53:48.075Z,100911.50
2018-06-11T08:54:52.362Z,100909.73
2018-06-11T08:55:56.662Z,100912.04
2018-06-11T08:57:00.959Z,100911.02
2018-06-11T08:58:05.190Z,100912.98
2018-06-11T08:59:09.444Z,100919.75
2018-06-11T09:00:13.667Z,100910.27
2018-06-11T09:01:17.951Z,100908.41
2018-06-11T09:02:22.258Z,100910.09
2018-06-11T09:03:26.534Z,100909.06
2018-06-11T09:04:30.952Z,100910.55
2018-06-11T09:05:35.371Z,100921.49
2018-06-11T09:06:39.627Z,100917.20
2018-06-11T09:07:43.853Z,100915.98
2018-06-11T09:08:48.079Z,100915.58
2018-06-11T09:09:52.322Z,100911.63
2018-06-11T09:10:56.933Z,100916.62
2018-06-11T09:12:01.130Z,100922.80
2018-06-11T09:13:05.339Z,100929.45
2018-06-11T09:14:09.526Z,100932.92
2018-06-11T09:15:13.785Z,100937.31
2018-06-11T09:16:17.962Z,100939.28
2018-06-11T09:17:22.208Z,100943.03
2018-06-11T09:18:26.424Z,100936.37
2018-06-11T09:19:30.599Z,100938.75
2018-06-11T09:20:34.964Z,100940.00
2018-06-11T09:21:39.200Z,100948.33
2018-06-11T09:22:43.420Z,100949.78
2018-06-11T09:23:47.583Z,100950.95
2018-06-11T09:24:51.755Z,100951.70
2018-06-11T09:25:56.187Z,100953.45
2018-06-11T09:27:00.403Z,100958.17
2018-06-11T09:28:04.838Z,100959.95
2018-06-11T09:29:09.044Z,100956.51
2018-06-11T09:30:13.478Z,100953.91
2018-06-11T09:31:17.681Z,100949.42
2018-06-11T09:32:21.894Z,100942.64
2018-06-11T09:33:26.278Z,100940.67
2018-06-11T09:34:30.495Z,100939.54
2018-06-11T09:35:34.743Z,100936.83
2018-06-11T09:36:39.042Z,100940.67
2018-06-11T09:37:43.234Z,100931.19
2018-06-11T09:38:47.529Z,100931.52
2018-06-11T09:39:51.798Z,100930.05
2018-06-11T09:40:56.411Z,100926.59
2018-06-11T09:42:00.594Z,100927.00
2018-06-11T09:43:04.865Z,100930.42
2018-06-11T09:44:09.296Z,100932.09
2018-06-11T09:45:13.567Z,100925.32
2018-06-11T09:46:17.890Z,100926.91
2018-06-11T09:47:22.253Z,100927.70
2018-06-11T09:48:26.534Z,100928.77
2018-06-11T09:49:31.000Z,100930.12
2018-06-11T09:50:35.218Z,100925.73
2018-06-11T09:51:39.524Z,100921.89
2018-06-11T09:52:43.931Z,100932.92
2018-06-11T09:53:48.259Z,100927.83
2018-06-11T09:54:52.474Z,100924.61
2018-06-11T09:55:56.711Z,100927.93
2018-06-11T09:57:00.986Z,100923.35
2018-06-11T09:58:05.686Z,100925.63
2018-06-11T09:59:09.932Z,100927.83
2018-06-11T10:00:19.545Z,100918.95
2018-06-11T10:01:23.747Z,100916.84
2018-06-11T10:02:28.006Z,100915.27
2018-06-11T10:03:32.167Z,100918.39
2018-06-11T10:04:36.619Z,100915.45
2018-06-11T10:05:41.407Z,100915.85
2018-06-11T10:06:45.611Z,100912.84
2018-06-11T10:07:50.178Z,100918.13
2018-06-11T10:08:54.375Z,100922.60
2018-06-11T10:09:58.561Z,100912.98
2018-06-11T10:11:02.883Z,100912.47
2018-06-11T10:12:07.099Z,100912.69
2018-06-11T10:13:11.302Z,100912.04
2018-06-11T10:14:15.491Z,100911.71
2018-06-11T10:15:19.823Z,100911.71
2018-06-11T10:16:24.035Z,100916.50
2018-06-11T10:17:28.278Z,100912.53
2018-06-11T10:18:32.495Z,100913.04
2018-06-11T10:19:36.670Z,100909.81
2018-06-11T10:20:41.046Z,100913.18
2018-06-11T10:21:45.682Z,100909.22
2018-06-11T10:22:49.903Z,100914.23
2018-06-11T10:23:54.089Z,100906.95
2018-06-11T10:24:58.292Z,100916.53
2018-06-11T10:26:02.676Z,100919.56
2018-06-11T10:27:07.326Z,100912.09
2018-06-11T10:28:11.480Z,100911.91
2018-06-11T10:29:15.694Z,100917.33
2018-06-11T10:30:19.877Z,100915.42
2018-06-11T10:31:24.155Z,100910.55
2018-06-11T10:32:28.385Z,100917.33
2018-06-11T10:33:32.635Z,100913.26
2018-06-11T10:34:36.886Z,100917.62
2018-06-11T10:35:41.083Z,100916.91
2018-06-11T10:36:45.303Z,100921.27
2018-06-11T10:37:49.550Z,100917.02
2018-06-11T10:38:53.899Z,100920.57
2018-06-11T10:39:58.180Z,100915.66
2018-06-11T10:41:02.397Z,100916.50
2018-06-11T10:42:06.677Z,100913.58
2018-06-11T10:43:11.154Z,100919.42
2018-06-11T10:44:15.374Z,100916.82
2018-06-11T10:45:19.636Z,100914.24
2018-06-11T10:46:23.819Z,100914.86
2018-06-11T10:47:28.019Z,100919.03
2018-06-11T10:48:32.657Z,100909.69
2018-06-11T10:49:36.826Z,100917.40
2018-06-11T10:50:41.010Z,100908.86
2018-06-11T10:51:45.248Z,100911.16
2018-06-11T10:52:49.487Z,100906.34
2018-06-11T10:53:53.750Z,100908.88
2018-06-11T10:54:57.941Z,100909.81
2018-06-11T10:56:02.122Z,100903.66
2018-06-11T10:57:06.491Z,100893.97
2018-06-11T10:58:10.686Z,100891.55
2018-06-11T10:59:14.964Z,100895.11
2018-06-11T11:00:19.214Z,100891.04
2018-06-11T11:01:23.387Z,100889.49
2018-06-11T11:02:27.594Z,100883.01
2018-06-11T11:03:31.780Z,100878.33
2018-06-11T11:04:36.550Z,100895.95
2018-06-11T11:05:40.706Z,100882.72
2018-06-11T11:06:44.910Z,100878.94
2018-06-11T11:07:49.087Z,100882.81
2018-06-11T11:08:53.457Z,100878.23
2018-06-11T11:09:57.690Z,100879.59
2018-06-11T11:11:01.896Z,100871.78
2018-06-11T11:12:06.080Z,100877.81
2018-06-11T11:13:10.535Z,100878.84
2018-06-11T11:14:14.947Z,100871.23
2018-06-11T11:15:19.402Z,100871.78
2018-06-11T11:16:23.684Z,100874.27
2018-06-11T11:17:28.063Z,100876.78
2018-06-11T11:18:32.307Z,100878.75
2018-06-11T11:19:36.561Z,100873.95
2018-06-11T11:20:40.869Z,100871.23
2018-06-11T11:21:45.101Z,100869.36
2018-06-11T11:22:49.318Z,100871.23
2018-06-11T11:23:53.549Z,100873.66
2018-06-11T11:24:57.737Z,100864.36
2018-06-11T11:26:01.970Z,100869.59
2018-06-11T11:27:06.207Z,100868.23
2018-06-11T11:28:10.476Z,100863.09
2018-06-11T11:29:14.642Z,100864.45
2018-06-11T11:30:18.843Z,100862.81
2018-06-11T11:31:23.093Z,100857.58
2018-06-11T11:32:27.402Z,100861.97
2018-06-11T11:33:31.663Z,100860.39
2018-06-11T11:34:35.924Z,100861.03
2018-06-11T11:35:40.096Z,100862.81
2018-06-11T11:36:44.380Z,100868.00
2018-06-11T11:37:48.598Z,100852.38
2018-06-11T11:38:52.888Z,100856.97
2018-06-11T11:39:57.132Z,100855.91
2018-06-11T11:41:01.283Z,100853.19
2018-06-11T11:42:05.504Z,100848.83
2018-06-11T11:43:10.245Z,100850.70
2018-06-11T11:44:14.605Z,100848.31
2018-06-11T11:45:18.794Z,100839.53
2018-06-11T11:46:23.260Z,100842.57
2018-06-11T11:47:27.571Z,100836.92
2018-06-11T11:48:32.419Z,100836.76
2018-06-11T11:49:36.585Z,100838.44
2018-06-11T11:50:40.823Z,100836.56
2018-06-11T11:51:45.068Z,100833.95
2018-06-11T11:52:49.307Z,100832.17
2018-06-11T11:53:53.500Z,100816.83
2018-06-11T11:54:57.703Z,100819.31
2018-06-11T11:56:01.902Z,100811.30
2018-06-11T11:57:06.159Z,100812.95
2018-06-11T11:58:10.358Z,100804.09
2018-06-11T11:59:14.852Z,100803.77
2018-06-11T12:00:19.057Z,100797.31
2018-06-11T12:01:23.316Z,100809.09
2018-06-11T12:02:27.554Z,100811.58
2018-06-11T12:03:31.795Z,100805.95
2018-06-11T12:04:36.071Z,100803.24
2018-06-11T12:05:40.458Z,100805.21
2018-06-11T12:06:44.674Z,100800.85
2018-06-11T12:07:48.903Z,100801.89
2018-06-11T12:08:53.125Z,100804.80
2018-06-11T12:09:57.291Z,100808.58
2018-06-11T12:11:01.464Z,100799.28
2018-06-11T12:12:05.688Z,100803.67
2018-06-11T12:13:10.030Z,100806.67
2018-06-11T12:14:14.277Z,100807.31
2018-06-11T12:15:18.488Z,100803.85